• Join FlightAware (Why Join?)
  • Login
  • US Flag 
02:54AM EDT


 

Airport Tracker/Info


-or-


 

Live Flight TrackerFlight Track Log ✈ F-GSPR ✈ 09-May-2013 ✈ SBGR / GRU - LFPG / CDG

Flight Track Log - Related Links

Times and Time Zones

All times are in EDT time to prevent confusion due to time zone crossing. See the F-GSPR flight status page for this flight to view local times or setup timezone preferences in your user account.

Time Position Orientation Groundspeed Altitude Reporting Facility
EDT Latitude Longitude Course Direction KTS MPH feet Rate Location/Type
06:22PM -22.9918 -46.1955 30° Northeast  Level Estimated
06:23PM -22.8805 -46.1265 30° Northeast  Level Estimated
06:27PM -23.2113 -46.3446 30° Northeast  Level Estimated
06:29PM -23.2206 -46.3494 30° Northeast  Level Estimated
06:30PM -23.1093 -46.2802 30° Northeast  Level Estimated
06:34PM -23.2411 -46.3629 30° Northeast  Level Estimated
06:35PM -23.1299 -46.2937 30° Northeast  Level Estimated
06:36PM -23.0186 -46.2246 30° Northeast  Level Estimated
06:40PM -23.1690 -46.3187 30° Northeast  Level Estimated
06:41PM -23.4240 -46.4450 74° East 187 215 2,900  Level FlightAware
06:41PM -23.4160 -46.4190 71° East 185 213 4,200 2,400 Climbing FlightAware
06:42PM -23.4110 -46.4010 73° East 191 220 4,900 2,220 Climbing FlightAware
06:42PM -23.4060 -46.3830 73° East 188 216 5,700 1,440 Climbing FlightAware
06:43PM -23.3960 -46.3510 71° East 223 257 6,100 1,080 Climbing FlightAware
06:43PM -23.3880 -46.3220 73° East 256 295 6,700 1,800 Climbing FlightAware
06:44PM -23.3730 -46.2750 71° East 280 322 7,900 2,280 Climbing FlightAware
06:44PM -23.3640 -46.2570 61° Northeast 278 320 8,600 2,580 Climbing FlightAware
06:44PM -23.3510 -46.2440 43° Northeast 287 330 9,200 1,800 Climbing FlightAware
06:44PM -23.3340 -46.2370 21° North 292 336 9,500 1,920 Climbing FlightAware
06:45PM -23.2740 -46.2220 13° North 314 361 11,000 1,680 Climbing FlightAware
06:46PM -23.1510 -46.1880 14° North 348 400 13,100 1,140 Climbing FlightAware
06:48PM -23.0250 -46.1460 17° North 393 452 14,100 1,200 Climbing FlightAware
06:49PM -22.8920 -46.0940 20° North 407 468 16,200 1,680 Climbing FlightAware
06:50PM -22.7620 -46.0440 20° North 428 493 18,200 1,560 Climbing FlightAware
06:51PM -22.6190 -45.9900 19° North 442 509 20,100 1,440 Climbing FlightAware
06:53PM -22.4720 -45.9340 19° North 446 513 21,900 1,440 Climbing FlightAware
06:54PM -22.3220 -45.8770 19° North 460 529 23,700 1,920 Climbing FlightAware
06:55PM -22.1790 -45.8220 20° North 425 489 26,700 1,500 Climbing FlightAware
06:56PM -22.0510 -45.7740 19° North 463 533 27,200 540 Climbing FlightAware
06:57PM -21.9510 -45.7360 19° North 481 554 27,700 840 Climbing FlightAware
06:58PM -21.8670 -45.7040 19° North 487 560 28,400 1,020 Climbing FlightAware
06:58PM -21.7730 -45.6690 19° North 492 566 29,200 960 Climbing FlightAware
06:59PM -21.6820 -45.6340 20° North 497 572 29,800 1,080 Climbing FlightAware
07:00PM -21.5990 -45.6030 19° North 496 571 30,700 1,260 Climbing FlightAware
07:00PM -21.5000 -45.5620 21° North 496 571 31,600 1,080 Climbing FlightAware
07:01PM -21.4200 -45.5130 30° Northeast 498 573 32,300 900 Climbing FlightAware
07:02PM -21.3440 -45.4600 33° Northeast 502 578 32,800 900 Climbing FlightAware
07:02PM -21.2560 -45.3990 33° Northeast 502 578 33,600 1,020 Climbing FlightAware
07:03PM -21.1740 -45.3440 32° Northeast 502 578 34,300 960 Climbing FlightAware
07:04PM -21.0870 -45.2840 33° Northeast 500 575 35,000 480 Climbing FlightAware
07:05PM -21.0120 -45.2330 32° Northeast 496 571 35,000  Level FlightAware
07:05PM -20.9240 -45.1730 32° Northeast 500 575 35,000  Level FlightAware
07:06PM -20.8540 -45.1250 33° Northeast 504 580 35,000  Level FlightAware
07:07PM -20.7740 -45.0710 32° Northeast 504 580 35,000  Level FlightAware
07:07PM -20.6950 -45.0170 33° Northeast 507 583 35,000  Level FlightAware
07:08PM -20.6250 -44.9690 33° Northeast 511 588 35,000  Level FlightAware
07:09PM -20.5300 -44.9030 33° Northeast 512 589 35,000  Level FlightAware
07:09PM -20.4460 -44.8460 32° Northeast 512 589 35,000  Level FlightAware
07:10PM -20.3560 -44.7840 33° Northeast 512 589 35,000  Level FlightAware
07:11PM -20.2770 -44.7300 33° Northeast 510 587 35,000  Level FlightAware
07:11PM -20.1880 -44.6690 33° Northeast 511 588 35,000  Level FlightAware
07:12PM -20.1090 -44.6150 33° Northeast 507 583 35,000  Level FlightAware
07:13PM -20.0210 -44.5480 36° Northeast 508 585 35,000  Level FlightAware
07:14PM -19.9570 -44.4810 45° Northeast 510 587 35,000  Level FlightAware
07:14PM -19.8810 -44.3970 46° Northeast 513 590 35,000  Level FlightAware
07:15PM -19.8150 -44.3230 47° Northeast 516 594 35,000  Level FlightAware
07:16PM -19.7510 -44.2530 46° Northeast 516 594 35,000  Level FlightAware
07:16PM -19.6720 -44.1700 45° Northeast 516 594 35,000  Level FlightAware
07:17PM -19.6040 -44.0980 45° Northeast 517 595 35,000  Level FlightAware
07:18PM -19.5370 -44.0440 37° Northeast 508 585 35,000  Level FlightAware
07:18PM -19.4430 -44.0010 23° Northeast 504 580 35,000  Level FlightAware
07:19PM -19.3480 -43.9620 21° North 503 579 35,000  Level FlightAware
07:20PM -19.2490 -43.9220 21° North 503 579 35,000  Level FlightAware
07:21PM -19.1600 -43.8850 21° North 503 579 35,000  Level FlightAware
07:21PM -19.0770 -43.8510 21° North 503 579 35,000  Level FlightAware
07:22PM -18.9740 -43.8100 21° North 500 575 35,000  Level FlightAware
07:23PM -18.8890 -43.7750 21° North 499 574 35,000  Level FlightAware
07:24PM -18.7700 -43.7270 21° North 498 573 35,000  Level FlightAware
07:24PM -18.6710 -43.6860 21° North 498 573 35,000  Level FlightAware
07:25PM -18.5900 -43.6530 21° North 499 574 35,000  Level FlightAware
07:26PM -18.4990 -43.6170 21° North 498 573 35,000  Level FlightAware
07:26PM -18.4040 -43.5780 21° North 499 574 35,000  Level FlightAware
07:27PM -18.3170 -43.5430 21° North 499 574 35,000  Level FlightAware
07:28PM -18.2190 -43.5030 21° North 499 574 35,000  Level FlightAware
07:28PM -18.1320 -43.4680 21° North 499 574 35,000  Level FlightAware
07:29PM -18.0450 -43.4330 21° North 499 574 35,000  Level FlightAware
07:30PM -17.9520 -43.3960 21° North 499 574 35,000  Level FlightAware
07:31PM -17.8610 -43.3590 21° North 501 577 35,000  Level FlightAware
07:31PM -17.7640 -43.3200 21° North 502 578 35,000  Level FlightAware
07:32PM -17.6770 -43.2850 21° North 503 579 35,000  Level FlightAware
07:33PM -17.5910 -43.2510 21° North 503 579 35,000  Level FlightAware
07:33PM -17.4920 -43.2110 21° North 506 582 35,000  Level FlightAware
07:34PM -17.4140 -43.1800 21° North 508 585 35,000  Level FlightAware
07:35PM -17.3170 -43.1390 22° Northeast 511 588 35,000  Level FlightAware
07:36PM -17.1910 -43.0760 26° Northeast 513 590 35,000  Level FlightAware
07:36PM -17.1030 -43.0310 26° Northeast 513 590 35,000  Level FlightAware
07:37PM -17.0050 -42.9810 26° Northeast 514 592 35,000  Level FlightAware
07:38PM -16.8880 -42.9210 26° Northeast 514 592 35,000  Level FlightAware
07:39PM -16.8070 -42.8800 26° Northeast 515 593 35,000  Level FlightAware
07:39PM -16.7080 -42.8300 26° Northeast 515 593 35,000  Level FlightAware
07:40PM -16.6310 -42.7910 26° Northeast 513 590 35,000  Level FlightAware
07:41PM -16.5510 -42.7500 26° Northeast 513 590 35,000  Level FlightAware
07:42PM -16.4420 -42.6950 26° Northeast 513 590 35,000  Level FlightAware
07:42PM -16.3390 -42.6430 26° Northeast 513 590 35,000  Level FlightAware
07:43PM -16.2490 -42.5970 26° Northeast 513 590 35,000  Level FlightAware
07:44PM -16.1760 -42.5610 25° Northeast 513 590 35,000  Level FlightAware
07:45PM -16.1040 -42.5240 26° Northeast 513 590 35,000  Level FlightAware
07:45PM -16.0310 -42.4870 26° Northeast 513 590 35,000  Level FlightAware
07:46PM -15.9590 -42.4500 26° Northeast 513 590 35,000  Level FlightAware
07:47PM -15.8680 -42.4040 26° Northeast 513 590 35,000  Level FlightAware
07:47PM -15.7950 -42.3670 26° Northeast 513 590 35,000  Level FlightAware
07:48PM -15.7230 -42.3310 26° Northeast 513 590 35,000  Level FlightAware
07:49PM -15.6500 -42.2940 26° Northeast 513 590 35,000  Level FlightAware
07:49PM -15.5780 -42.2570 26° Northeast 513 590 35,000  Level FlightAware
07:50PM -15.4870 -42.2110 26° Northeast 513 590 35,000  Level FlightAware
07:51PM -15.4150 -42.1750 26° Northeast 513 590 35,000  Level FlightAware
07:52PM -15.3420 -42.1380 26° Northeast 513 590 35,000 -60 Level FlightAware
07:54PM -15.1220 -42.0146 28° Northeast  Level Estimated
07:55PM -15.0102 -41.9519 28° Northeast  Level Estimated
07:56PM -14.8983 -41.8893 28° Northeast  Level Estimated
07:57PM -14.7864 -41.8268 28° Northeast  Level Estimated
07:58PM -14.6745 -41.7643 28° Northeast  Level Estimated
07:59PM -14.5625 -41.7019 28° Northeast  Level Estimated
08:00PM -14.4506 -41.6396 28° Northeast  Level Estimated
08:01PM -14.3386 -41.5773 28° Northeast  Level Estimated
08:02PM -14.2266 -41.5151 28° Northeast  Level Estimated
08:03PM -14.1146 -41.4529 28° Northeast  Level Estimated
08:04PM -14.0026 -41.3908 28° Northeast  Level Estimated
08:05PM -13.8906 -41.3288 28° Northeast  Level Estimated
08:06PM -13.7785 -41.2668 28° Northeast  Level Estimated
08:07PM -13.6664 -41.2049 28° Northeast  Level Estimated
08:08PM -13.5544 -41.1431 28° Northeast  Level Estimated
08:09PM -13.4423 -41.0813 28° Northeast  Level Estimated
08:10PM -13.3302 -41.0195 28° Northeast  Level Estimated
08:11PM -13.2181 -40.9579 28° Northeast  Level Estimated
08:12PM -13.1059 -40.8962 28° Northeast  Level Estimated
08:13PM -12.9938 -40.8347 28° Northeast  Level Estimated
08:14PM -12.8816 -40.7732 28° Northeast  Level Estimated
08:15PM -12.7694 -40.7117 28° Northeast  Level Estimated
08:16PM -12.6572 -40.6503 28° Northeast  Level Estimated
08:17PM -12.5450 -40.5890 28° Northeast  Level Estimated
08:18PM -12.4328 -40.5277 28° Northeast  Level Estimated
08:19PM -12.3205 -40.4664 28° Northeast  Level Estimated
08:20PM -12.2083 -40.4052 28° Northeast  Level Estimated
08:21PM -12.0960 -40.3441 28° Northeast  Level Estimated
08:22PM -11.9837 -40.2830 28° Northeast  Level Estimated
08:23PM -11.8671 -40.2196 28° Northeast  Level Estimated
08:24PM -11.7504 -40.1562 28° Northeast  Level Estimated
08:25PM -11.6336 -40.0929 28° Northeast  Level Estimated
08:26PM -11.5169 -40.0297 28° Northeast  Level Estimated
08:27PM -11.4002 -39.9664 28° Northeast  Level Estimated
08:28PM -11.2835 -39.9033 28° Northeast  Level Estimated
08:29PM -11.1667 -39.8402 28° Northeast  Level Estimated
08:30PM -11.0499 -39.7771 28° Northeast  Level Estimated
08:31PM -10.9331 -39.7141 28° Northeast  Level Estimated
08:32PM -10.8163 -39.6512 28° Northeast  Level Estimated
08:33PM -10.6995 -39.5883 28° Northeast  Level Estimated
08:34PM -10.5827 -39.5254 28° Northeast  Level Estimated
08:35PM -10.4658 -39.4626 28° Northeast  Level Estimated
08:36PM -10.3490 -39.3999 28° Northeast  Level Estimated
08:37PM -10.2321 -39.3372 28° Northeast  Level Estimated
08:38PM -10.1153 -39.2745 28° Northeast  Level Estimated
08:39PM -9.9984 -39.2119 28° Northeast  Level Estimated
08:40PM -9.8815 -39.1493 28° Northeast  Level Estimated
08:41PM -9.7646 -39.0868 28° Northeast  Level Estimated
08:42PM -9.6476 -39.0243 28° Northeast  Level Estimated
08:43PM -9.5307 -38.9618 28° Northeast  Level Estimated
08:44PM -9.4138 -38.8994 28° Northeast  Level Estimated
08:45PM -9.2968 -38.8371 28° Northeast  Level Estimated
08:46PM -9.1799 -38.7747 28° Northeast  Level Estimated
08:47PM -9.0629 -38.7125 28° Northeast  Level Estimated
08:48PM -8.9459 -38.6502 28° Northeast  Level Estimated
08:49PM -8.8289 -38.5880 28° Northeast  Level Estimated
08:50PM -8.7119 -38.5259 28° Northeast  Level Estimated
08:51PM -8.5949 -38.4637 28° Northeast  Level Estimated
08:52PM -8.4778 -38.4017 28° Northeast  Level Estimated
08:53PM -8.3608 -38.3396 28° Northeast  Level Estimated
08:54PM -8.2437 -38.2776 28° Northeast  Level Estimated
08:55PM -8.1267 -38.2157 28° Northeast  Level Estimated
08:56PM -8.0096 -38.1537 28° Northeast  Level Estimated
08:57PM -7.8925 -38.0918 28° Northeast  Level Estimated
08:58PM -7.7755 -38.0300 28° Northeast  Level Estimated
08:59PM -7.6584 -37.9682 28° Northeast  Level Estimated
09:00PM -7.5413 -37.9064 28° Northeast  Level Estimated
09:01PM -7.4242 -37.8446 28° Northeast  Level Estimated
09:02PM -7.3070 -37.7829 28° Northeast  Level Estimated
09:03PM -7.1899 -37.7212 28° Northeast  Level Estimated
09:04PM -7.0728 -37.6595 28° Northeast  Level Estimated
09:05PM -6.9556 -37.5979 28° Northeast  Level Estimated
09:06PM -6.8385 -37.5363 28° Northeast  Level Estimated
09:07PM -6.7213 -37.4747 28° Northeast  Level Estimated
09:07PM -6.3540 -36.8380 28° Northeast 488 562 33,000  Level FlightAware
09:08PM -6.6041 -37.4132 28° Northeast  Level Estimated
09:08PM -6.2740 -36.8160 15° North 485 558 33,000  Level FlightAware
09:09PM -6.1710 -36.7870 16° North 485 558 33,000  Level FlightAware
09:09PM -6.0850 -36.7630 16° North 485 558 33,000  Level FlightAware
09:10PM -6.0010 -36.7380 16° North 484 557 33,000  Level FlightAware
09:11PM -5.8960 -36.7070 16° North 487 560 33,000  Level FlightAware
09:11PM -5.8100 -36.6810 17° North 487 560 33,000  Level FlightAware
09:12PM -5.7190 -36.6530 17° North 492 566 33,000  Level FlightAware
09:13PM -5.6210 -36.6230 17° North 490 564 33,000  Level FlightAware
09:14PM -5.5300 -36.5960 16° North 488 562 33,000  Level FlightAware
09:14PM -5.4380 -36.5680 17° North 487 560 33,000  Level FlightAware
09:15PM -5.3390 -36.5390 16° North 487 560 33,000  Level FlightAware
09:16PM -5.2650 -36.5160 17° North 488 562 33,000  Level FlightAware
09:16PM -5.1590 -36.4840 17° North 489 563 33,000  Level FlightAware
09:17PM -5.0980 -36.4660 16° North 490 564 33,000 60 Level FlightAware
09:18PM -4.9790 -36.4300 17° North 492 566 33,100 540 Climbing FlightAware
09:18PM -4.8880 -36.4030 16° North 490 564 33,900 1,080 Climbing FlightAware
09:19PM -4.7960 -36.3750 17° North 489 563 34,700 780 Climbing FlightAware
09:20PM -4.7100 -36.3500 16° North 488 562 35,000 180 Climbing FlightAware
09:21PM -4.6070 -36.3180 17° North 491 565 35,000  Level FlightAware
09:21PM -4.5170 -36.2910 17° North 491 565 35,000  Level FlightAware
09:22PM -4.4310 -36.2650 17° North 491 565 35,000  Level FlightAware
09:22PM -4.3560 -36.2430 16° North 491 565 35,000  Level FlightAware
09:23PM -4.2700 -36.2180 16° North 491 565 35,000  Level FlightAware
09:24PM -4.1590 -36.1840 17° North 491 565 35,000  Level FlightAware
09:25PM -4.0600 -36.1540 17° North 492 566 35,000  Level FlightAware
09:25PM -3.9740 -36.1280 17° North 493 567 35,000  Level FlightAware
09:26PM -3.8810 -36.1010 16° North 493 567 35,000  Level FlightAware
09:27PM -3.7770 -36.0690 17° North 484 557 35,000  Level FlightAware
09:28PM -3.6680 -36.0360 17° North 485 558 35,000  Level FlightAware
09:28PM -3.5840 -36.0110 17° North 485 558 35,000  Level FlightAware
09:29PM -3.5110 -35.9880 17° North 485 558 35,000  Level FlightAware
09:30PM -3.4380 -35.9660 17° North 485 558 35,000  Level FlightAware
09:31PM -3.3010 -35.9260 16° North 490 564 35,000  Level FlightAware
09:31PM -3.2300 -35.9060 16° North 490 564 35,000  Level FlightAware
09:32PM -3.1380 -35.8800 16° North 490 564 35,000  Level FlightAware
09:33PM -3.0640 -35.8580 17° North 490 564 35,000  Level FlightAware
09:33PM -2.9890 -35.8370 16° North 490 564 35,000  Level FlightAware
09:34PM -2.9150 -35.8160 16° North 490 564 35,000  Level FlightAware
09:35PM -2.7720 -35.7690 18° North 487 560 35,000  Level FlightAware
09:35PM -2.6790 -35.7420 16° North 487 560 35,000  Level FlightAware
09:36PM -2.6060 -35.7210 16° North 487 560 35,000  Level FlightAware
09:37PM -2.5320 -35.7000 16° North 487 560 35,000  Level FlightAware
09:37PM -2.4590 -35.6790 16° North 487 560 35,000  Level FlightAware
09:38PM -2.3850 -35.6580 16° North 487 560 35,000  Level FlightAware
09:39PM -2.2930 -35.6310 16° North 487 560 35,000  Level FlightAware
09:40PM -2.2190 -35.6100 16° North 487 560 35,000  Level FlightAware
09:40PM -2.1460 -35.5890 16° North 487 560 35,000  Level FlightAware
09:41PM -2.0720 -35.5680 16° North 487 560 35,000  Level FlightAware
09:42PM -1.9980 -35.5470 16° North 487 560 35,000  Level FlightAware
09:42PM -1.9060 -35.5200 16° North 487 560 35,000  Level FlightAware
09:43PM -1.8330 -35.4990 16° North 487 560 35,000  Level FlightAware
09:44PM -1.7590 -35.4780 16° North 487 560 35,000  Level FlightAware
09:46PM -1.5581 -35.3726 28° Northeast  Level Estimated
09:47PM -1.4411 -35.3112 28° Northeast  Level Estimated
09:48PM -1.3240 -35.2498 28° Northeast  Level Estimated
09:49PM -1.2070 -35.1884 28° Northeast  Level Estimated
09:50PM -1.0899 -35.1270 28° Northeast  Level Estimated
09:51PM -0.9729 -35.0657 28° Northeast  Level Estimated
09:52PM -0.8558 -35.0043 28° Northeast  Level Estimated
09:53PM -0.7388 -34.9429 28° Northeast  Level Estimated
09:54PM -0.6218 -34.8816 28° Northeast  Level Estimated
09:55PM -0.5047 -34.8202 28° Northeast  Level Estimated
09:56PM -0.3877 -34.7589 28° Northeast  Level Estimated
09:57PM -0.2706 -34.6975 28° Northeast  Level Estimated
09:58PM -0.1536 -34.6361 28° Northeast  Level Estimated
09:59PM -0.0365 -34.5748 28° Northeast  Level Estimated
10:00PM 0.0805 -34.5134 28° Northeast  Level Estimated
10:01PM 0.1976 -34.4521 28° Northeast  Level Estimated
10:02PM 0.3146 -34.3907 28° Northeast  Level Estimated
10:03PM 0.4317 -34.3293 28° Northeast  Level Estimated
10:04PM 0.5487 -34.2680 28° Northeast  Level Estimated
10:05PM 0.6658 -34.2066 28° Northeast  Level Estimated
10:06PM 0.7828 -34.1453 28° Northeast  Level Estimated
10:07PM 0.8998 -34.0839 28° Northeast  Level Estimated
10:08PM 1.0169 -34.0225 28° Northeast  Level Estimated
10:09PM 1.1339 -33.9612 28° Northeast  Level Estimated
10:10PM 1.2509 -33.8998 28° Northeast  Level Estimated
10:11PM 1.3680 -33.8384 28° Northeast  Level Estimated
10:12PM 1.4850 -33.7770 28° Northeast  Level Estimated
10:13PM 1.6021 -33.7156 28° Northeast  Level Estimated
10:14PM 1.7191 -33.6542 28° Northeast  Level Estimated
10:15PM 1.8361 -33.5928 28° Northeast  Level Estimated
10:16PM 1.9532 -33.5313 28° Northeast  Level Estimated
10:17PM 2.0702 -33.4699 28° Northeast  Level Estimated
10:18PM 2.1872 -33.4085 28° Northeast  Level Estimated
10:19PM 2.3042 -33.3470 28° Northeast  Level Estimated
10:20PM 2.4212 -33.2856 28° Northeast  Level Estimated
10:21PM 2.5383 -33.2241 28° Northeast  Level Estimated
10:22PM 2.6553 -33.1626 28° Northeast  Level Estimated
10:23PM 2.7723 -33.1011 28° Northeast  Level Estimated
10:24PM 2.8893 -33.0396 28° Northeast  Level Estimated
10:25PM 3.0063 -32.9781 28° Northeast  Level Estimated
10:26PM 3.1233 -32.9166 28° Northeast  Level Estimated
10:27PM 3.2403 -32.8550 28° Northeast  Level Estimated
10:28PM 3.3573 -32.7935 28° Northeast  Level Estimated
10:29PM 3.4743 -32.7319 28° Northeast  Level Estimated
10:30PM 3.5912 -32.6703 28° Northeast  Level Estimated
10:31PM 3.7082 -32.6087 28° Northeast  Level Estimated
10:32PM 3.8252 -32.5471 28° Northeast  Level Estimated
10:33PM 3.9422 -32.4855 28° Northeast  Level Estimated
10:34PM 4.0592 -32.4238 28° Northeast  Level Estimated
10:35PM 4.1761 -32.3621 28° Northeast  Level Estimated
10:36PM 4.2931 -32.3004 28° Northeast  Level Estimated
10:37PM 4.4100 -32.2387 28° Northeast  Level Estimated
10:38PM 4.5270 -32.1770 28° Northeast  Level Estimated
10:39PM 4.6439 -32.1153 28° Northeast  Level Estimated
10:40PM 4.7608 -32.0535 28° Northeast  Level Estimated
10:41PM 4.8778 -31.9917 28° Northeast  Level Estimated
10:42PM 4.9947 -31.9299 28° Northeast  Level Estimated
10:43PM 5.1116 -31.8681 28° Northeast  Level Estimated
10:44PM 5.2285 -31.8062 28° Northeast  Level Estimated
10:45PM 5.3454 -31.7443 28° Northeast  Level Estimated
10:46PM 5.4623 -31.6824 28° Northeast  Level Estimated
10:47PM 5.5792 -31.6205 28° Northeast  Level Estimated
10:48PM 5.6961 -31.5585 28° Northeast  Level Estimated
10:49PM 5.8130 -31.4966 28° Northeast  Level Estimated
10:50PM 5.9299 -31.4346 28° Northeast  Level Estimated
10:51PM 6.0468 -31.3725 28° Northeast  Level Estimated
10:52PM 6.1636 -31.3105 28° Northeast  Level Estimated
10:53PM 6.2805 -31.2484 28° Northeast  Level Estimated
10:54PM 6.3973 -31.1863 28° Northeast  Level Estimated
10:55PM 6.5142 -31.1241 28° Northeast  Level Estimated
10:56PM 6.6310 -31.0620 28° Northeast  Level Estimated
10:57PM 6.7478 -30.9998 28° Northeast  Level Estimated
10:58PM 6.8646 -30.9375 28° Northeast  Level Estimated
10:59PM 6.9815 -30.8753 28° Northeast  Level Estimated
11:00PM 7.0982 -30.8130 28° Northeast  Level Estimated
11:01PM 7.2150 -30.7507 28° Northeast  Level Estimated
11:02PM 7.3318 -30.6883 28° Northeast  Level Estimated
11:03PM 7.4486 -30.6259 28° Northeast  Level Estimated
11:04PM 7.5654 -30.5635 28° Northeast  Level Estimated
11:05PM 7.6821 -30.5011 28° Northeast  Level Estimated
11:06PM 7.7989 -30.4386 28° Northeast  Level Estimated
11:07PM 7.9156 -30.3761 28° Northeast  Level Estimated
11:08PM 8.0323 -30.3135 28° Northeast  Level Estimated
11:09PM 8.1491 -30.2509 28° Northeast  Level Estimated
11:10PM 8.2658 -30.1883 28° Northeast  Level Estimated
11:11PM 8.3825 -30.1256 28° Northeast  Level Estimated
11:12PM 8.4992 -30.0629 28° Northeast  Level Estimated
11:13PM 8.6159 -30.0002 28° Northeast  Level Estimated
11:14PM 8.7325 -29.9374 28° Northeast  Level Estimated
11:15PM 8.8492 -29.8745 28° Northeast  Level Estimated
11:16PM 8.9658 -29.8117 28° Northeast  Level Estimated
11:17PM 9.0825 -29.7488 28° Northeast  Level Estimated
11:18PM 9.1991 -29.6859 28° Northeast  Level Estimated
11:19PM 9.3157 -29.6229 28° Northeast  Level Estimated
11:20PM 9.4323 -29.5598 28° Northeast  Level Estimated
11:21PM 9.5489 -29.4968 28° Northeast  Level Estimated
11:22PM 9.6655 -29.4337 28° Northeast  Level Estimated
11:23PM 9.7821 -29.3705 28° Northeast  Level Estimated
11:24PM 9.8986 -29.3073 28° Northeast  Level Estimated
11:25PM 10.0152 -29.2440 28° Northeast  Level Estimated
11:26PM 10.1317 -29.1808 28° Northeast  Level Estimated
11:27PM 10.2483 -29.1174 28° Northeast  Level Estimated
11:28PM 10.3648 -29.0540 28° Northeast  Level Estimated
11:29PM 10.4813 -28.9906 28° Northeast  Level Estimated
11:30PM 10.5978 -28.9271 28° Northeast  Level Estimated
11:31PM 10.7142 -28.8636 28° Northeast  Level Estimated
11:32PM 10.8307 -28.8000 28° Northeast  Level Estimated
11:33PM 10.9472 -28.7364 28° Northeast  Level Estimated
11:34PM 11.0636 -28.6727 28° Northeast  Level Estimated
11:35PM 11.1800 -28.6090 28° Northeast  Level Estimated
11:36PM 11.2964 -28.5452 28° Northeast  Level Estimated
11:37PM 11.4128 -28.4814 28° Northeast  Level Estimated
11:38PM 11.5292 -28.4175 28° Northeast  Level Estimated
11:39PM 11.6456 -28.3536 28° Northeast  Level Estimated
11:40PM 11.7619 -28.2896 28° Northeast  Level Estimated
11:41PM 11.8783 -28.2255 28° Northeast  Level Estimated
11:42PM 11.9946 -28.1614 28° Northeast  Level Estimated
11:43PM 12.1109 -28.0973 28° Northeast  Level Estimated
11:44PM 12.2272 -28.0331 28° Northeast  Level Estimated
11:45PM 12.3435 -27.9688 28° Northeast  Level Estimated
11:46PM 12.4598 -27.9045 28° Northeast  Level Estimated
11:47PM 12.5760 -27.8401 28° Northeast  Level Estimated
11:48PM 12.6922 -27.7757 28° Northeast  Level Estimated
11:49PM 12.8085 -27.7112 28° Northeast  Level Estimated
11:50PM 12.9247 -27.6466 28° Northeast  Level Estimated
11:51PM 13.0408 -27.5820 28° Northeast  Level Estimated
11:52PM 13.1570 -27.5173 28° Northeast  Level Estimated
11:53PM 13.2732 -27.4526 28° Northeast  Level Estimated
11:54PM 13.3893 -27.3878 28° Northeast  Level Estimated
11:55PM 13.5054 -27.3229 29° Northeast  Level Estimated
11:56PM 13.6215 -27.2580 29° Northeast  Level Estimated
11:57PM 13.7376 -27.1930 29° Northeast  Level Estimated
11:58PM 13.8537 -27.1279 29° Northeast  Level Estimated
11:59PM 13.9698 -27.0628 29° Northeast  Level Estimated
12:00AM 14.0858 -26.9976 29° Northeast  Level Estimated
12:01AM 14.2018 -26.9324 29° Northeast  Level Estimated
12:02AM 14.3178 -26.8671 29° Northeast  Level Estimated
12:03AM 14.4338 -26.8017 29° Northeast  Level Estimated
12:04AM 14.5498 -26.7362 29° Northeast  Level Estimated
12:05AM 14.6657 -26.6707 29° Northeast  Level Estimated
12:06AM 14.7817 -26.6051 29° Northeast  Level Estimated
12:07AM 14.8976 -26.5395 29° Northeast  Level Estimated
12:08AM 15.0135 -26.4737 29° Northeast  Level Estimated
12:09AM 15.1293 -26.4079 29° Northeast  Level Estimated
12:10AM 15.2452 -26.3421 29° Northeast  Level Estimated
12:11AM 15.3610 -26.2761 29° Northeast  Level Estimated
12:12AM 15.4768 -26.2101 29° Northeast  Level Estimated
12:13AM 15.5927 -26.1440 29° Northeast  Level Estimated
12:14AM 15.7084 -26.0778 29° Northeast  Level Estimated
12:15AM 15.8242 -26.0116 29° Northeast  Level Estimated
12:16AM 15.9399 -25.9452 29° Northeast  Level Estimated
12:17AM 16.0557 -25.8788 29° Northeast  Level Estimated
12:18AM 16.1714 -25.8124 29° Northeast  Level Estimated
12:19AM 16.2870 -25.7458 29° Northeast  Level Estimated
12:20AM 16.4027 -25.6792 29° Northeast  Level Estimated
12:21AM 16.5183 -25.6125 29° Northeast  Level Estimated
12:22AM 16.6339 -25.5457 29° Northeast  Level Estimated
12:23AM 16.7495 -25.4788 29° Northeast  Level Estimated
12:24AM 16.8651 -25.4119 29° Northeast  Level Estimated
12:25AM 16.9806 -25.3448 29° Northeast  Level Estimated
12:26AM 17.0962 -25.2777 29° Northeast  Level Estimated
12:27AM 17.2117 -25.2105 29° Northeast  Level Estimated
12:28AM 17.3271 -25.1432 29° Northeast  Level Estimated
12:29AM 17.4426 -25.0759 29° Northeast  Level Estimated
12:30AM 17.5580 -25.0084 29° Northeast  Level Estimated
12:31AM 17.6735 -24.9409 29° Northeast  Level Estimated
12:32AM 17.7888 -24.8732 29° Northeast  Level Estimated
12:33AM 17.9042 -24.8055 29° Northeast  Level Estimated
12:34AM 18.0196 -24.7377 29° Northeast  Level Estimated
12:35AM 18.1349 -24.6698 29° Northeast  Level Estimated
12:36AM 18.2502 -24.6019 29° Northeast  Level Estimated
12:37AM 18.3654 -24.5338 29° Northeast  Level Estimated
12:38AM 18.4807 -24.4656 29° Northeast  Level Estimated
12:39AM 18.5959 -24.3974 29° Northeast  Level Estimated
12:40AM 18.7111 -24.3290 29° Northeast  Level Estimated
12:41AM 18.8263 -24.2606 29° Northeast  Level Estimated
12:42AM 18.9414 -24.1921 29° Northeast  Level Estimated
12:43AM 19.0565 -24.1234 29° Northeast  Level Estimated
12:44AM 19.1716 -24.0547 29° Northeast  Level Estimated
12:45AM 19.2867 -23.9859 29° Northeast  Level Estimated
12:46AM 19.4018 -23.9170 29° Northeast  Level Estimated
12:47AM 19.5168 -23.8480 29° Northeast  Level Estimated
12:48AM 19.6318 -23.7789 30° Northeast  Level Estimated
12:49AM 19.7467 -23.7096 30° Northeast  Level Estimated
12:50AM 19.8617 -23.6403 30° Northeast  Level Estimated
12:51AM 19.9766 -23.5709 30° Northeast  Level Estimated
12:52AM 20.0915 -23.5014 30° Northeast  Level Estimated
12:53AM 20.2064 -23.4318 30° Northeast  Level Estimated
12:54AM 20.3212 -23.3621 30° Northeast  Level Estimated
12:55AM 20.4360 -23.2923 30° Northeast  Level Estimated
12:56AM 20.5508 -23.2223 30° Northeast  Level Estimated
12:57AM 20.6655 -23.1523 30° Northeast  Level Estimated
12:58AM 20.7803 -23.0822 30° Northeast  Level Estimated
12:59AM 20.8949 -23.0119 30° Northeast  Level Estimated
01:00AM 21.0096 -22.9416 30° Northeast  Level Estimated
01:01AM 21.1242 -22.8711 30° Northeast  Level Estimated
01:02AM 21.2388 -22.8005 30° Northeast  Level Estimated
01:03AM 21.3534 -22.7299 30° Northeast  Level Estimated
01:04AM 21.4680 -22.6591 30° Northeast  Level Estimated
01:05AM 21.5825 -22.5882 30° Northeast  Level Estimated
01:06AM 21.6970 -22.5172 30° Northeast  Level Estimated
01:07AM 21.8114 -22.4460 30° Northeast  Level Estimated
01:08AM 21.9259 -22.3748 30° Northeast  Level Estimated
01:09AM 22.0403 -22.3034 30° Northeast  Level Estimated
01:10AM 22.1546 -22.2320 30° Northeast  Level Estimated
01:11AM 22.2690 -22.1604 30° Northeast  Level Estimated
01:11AM 23.9070 -20.2630 30° Northeast 552 635 35,000  Level FlightAware
01:12AM 22.3833 -22.0887 30° Northeast  Level Estimated
01:12AM 23.9820 -20.2120 32° Northeast 553 636 35,000  Level FlightAware
01:13AM 24.0890 -20.1380 32° Northeast 553 636 35,000  Level FlightAware
01:13AM 24.1800 -20.0750 32° Northeast 553 636 35,000  Level FlightAware
01:14AM 24.2660 -20.0160 32° Northeast 553 636 35,000  Level FlightAware
01:15AM 24.3400 -19.9650 32° Northeast 553 636 35,000  Level FlightAware
01:15AM 24.4660 -19.8770 32° Northeast 551 634 35,000  Level FlightAware
01:16AM 24.5430 -19.8250 32° Northeast 551 634 35,000  Level FlightAware
01:17AM 24.6160 -19.7740 32° Northeast 551 634 35,000  Level FlightAware
01:17AM 24.6900 -19.7230 32° Northeast 551 634 35,000  Level FlightAware
01:18AM 24.7630 -19.6730 32° Northeast 551 634 35,000  Level FlightAware
01:19AM 24.8550 -19.6100 32° Northeast 551 634 35,000  Level FlightAware
01:20AM 24.9280 -19.5590 32° Northeast 551 634 35,000  Level FlightAware
01:20AM 25.0710 -19.4160 42° Northeast 558 642 35,000  Level FlightAware
01:21AM 25.1560 -19.3080 49° Northeast 552 635 35,000  Level FlightAware
01:22AM 25.2750 -19.1550 49° Northeast 554 638 35,000  Level FlightAware
01:23AM 25.3250 -19.0910 49° Northeast 554 638 35,000  Level FlightAware
01:24AM 25.4540 -18.9270 49° Northeast 552 635 35,000  Level FlightAware
01:25AM 25.5970 -18.7420 49° Northeast 550 633 35,000  Level FlightAware
01:26AM 25.6660 -18.6530 49° Northeast 551 634 35,000  Level FlightAware
01:27AM 25.7420 -18.5560 49° Northeast 550 633 35,000  Level FlightAware
01:28AM 25.8090 -18.4690 49° Northeast 550 633 35,000  Level FlightAware
01:28AM 25.8840 -18.3710 50° Northeast 550 633 35,000  Level FlightAware
01:29AM 25.9510 -18.2850 49° Northeast 550 633 35,000 300 Level FlightAware
01:30AM 26.0160 -18.2000 50° Northeast 551 634 35,400 840 Climbing FlightAware
01:30AM 26.0940 -18.0980 50° Northeast 556 640 36,200 840 Climbing FlightAware
01:31AM 26.1600 -18.0120 49° Northeast 571 657 36,600 780 Climbing FlightAware
01:32AM 26.2300 -17.9190 50° Northeast 572 658 37,300 960 Climbing FlightAware
01:32AM 26.3060 -17.8200 49° Northeast 562 647 38,000 480 Climbing FlightAware
01:33AM 26.3740 -17.7310 50° Northeast 561 646 38,000  Level FlightAware
01:34AM 26.4510 -17.6300 50° Northeast 560 644 38,000  Level FlightAware
01:35AM 26.5170 -17.5420 50° Northeast 562 647 38,000  Level FlightAware
01:35AM 26.5950 -17.4390 50° Northeast 562 647 38,000  Level FlightAware
01:36AM 26.6610 -17.3510 50° Northeast 562 647 38,000  Level FlightAware
01:37AM 26.7280 -17.2620 50° Northeast 562 647 38,000  Level FlightAware
01:37AM 26.8040 -17.1600 50° Northeast 562 647 38,000  Level FlightAware
01:38AM 26.8710 -17.0710 50° Northeast 562 647 38,000  Level FlightAware
01:39AM 26.9480 -16.9680 50° Northeast 563 648 38,000  Level FlightAware
01:39AM 27.0170 -16.8750 50° Northeast 563 648 38,000  Level FlightAware
01:40AM 27.0860 -16.7840 50° Northeast 563 648 38,000  Level FlightAware
01:41AM 27.1590 -16.6840 51° Northeast 563 648 38,000  Level FlightAware
01:42AM 27.2260 -16.5950 50° Northeast 563 648 38,000  Level FlightAware
01:42AM 27.3020 -16.4910 51° Northeast 563 648 38,000  Level FlightAware
01:43AM 27.3690 -16.4000 50° Northeast 563 648 38,000  Level FlightAware
01:44AM 27.4380 -16.3070 50° Northeast 563 648 38,000  Level FlightAware
01:44AM 27.5120 -16.2070 50° Northeast 564 649 38,000  Level FlightAware
01:45AM 27.5780 -16.1160 51° Northeast 564 649 38,000  Level FlightAware
01:46AM 27.6460 -16.0230 50° Northeast 564 649 38,000  Level FlightAware
01:46AM 27.7200 -15.9210 51° Northeast 564 649 38,000  Level FlightAware
01:47AM 27.7890 -15.8270 50° Northeast 563 648 38,000  Level FlightAware
01:48AM 27.8540 -15.7370 51° Northeast 563 648 38,000  Level FlightAware
01:49AM 27.9310 -15.6310 51° Northeast 562 647 38,000  Level FlightAware
01:49AM 27.9970 -15.5410 50° Northeast 563 648 38,000  Level FlightAware
01:50AM 28.0770 -15.4460 46° Northeast 561 646 38,000  Level FlightAware
01:51AM 28.1710 -15.3960 25° Northeast 538 619 38,000  Level FlightAware
01:51AM 28.2790 -15.3580 17° North 539 620 38,000  Level FlightAware
01:52AM 28.3770 -15.3240 17° North 540 621 38,000  Level FlightAware
01:53AM 28.4860 -15.2860 17° North 541 623 38,000  Level FlightAware
01:53AM 28.5820 -15.2520 17° North 542 624 38,000  Level FlightAware
01:54AM 28.6550 -15.2260 17° North 542 624 38,000  Level FlightAware
01:55AM 28.7550 -15.1910 17° North 543 625 38,000  Level FlightAware
01:55AM 28.8540 -15.1560 17° North 552 635 38,000  Level FlightAware
01:56AM 28.9630 -15.1170 17° North 551 634 38,000  Level FlightAware
01:57AM 29.0610 -15.0820 17° North 553 636 38,000  Level FlightAware
01:57AM 29.1590 -15.0480 17° North 553 636 38,000  Level FlightAware
01:58AM 29.3020 -14.9970 17° North 554 638 38,000  Level FlightAware
01:59AM 29.3790 -14.9700 17° North 554 638 38,000  Level FlightAware
02:00AM 29.4920 -14.9280 18° North 555 639 38,000  Level FlightAware
02:00AM 29.5920 -14.8920 17° North 555 639 38,000  Level FlightAware
02:01AM 29.6810 -14.8600 17° North 555 639 38,000  Level FlightAware
02:02AM 29.7780 -14.8250 17° North 555 639 38,000  Level FlightAware
02:02AM 29.8770 -14.7900 17° North 555 639 38,000  Level FlightAware
02:03AM 30.0030 -14.7440 18° North 555 639 38,000  Level FlightAware
02:04AM 30.1420 -14.6940 17° North 555 639 38,000  Level FlightAware
02:05AM 30.2500 -14.6540 18° North 555 639 38,000  Level FlightAware
02:05AM 30.3480 -14.6190 17° North 554 638 38,000  Level FlightAware
02:06AM 30.4760 -14.5720 18° North 553 636 38,000  Level FlightAware
02:07AM 30.5910 -14.5290 18° North 546 628 38,000  Level FlightAware
02:08AM 30.6800 -14.4960 18° North 547 629 38,000  Level FlightAware
02:08AM 30.7680 -14.4230 35° Northeast 560 644 38,000  Level FlightAware
02:09AM 30.8690 -14.3490 32° Northeast 562 647 38,000  Level FlightAware
02:10AM 30.9400 -14.2950 33° Northeast 562 647 38,000  Level FlightAware
02:11AM 31.0320 -14.2250 33° Northeast 562 647 38,000  Level FlightAware
02:11AM 31.1060 -14.1690 33° Northeast 562 647 38,000  Level FlightAware
02:12AM 31.2400 -14.0550 36° Northeast 561 646 38,000  Level FlightAware
02:13AM 31.3130 -13.9970 34° Northeast 560 644 38,000  Level FlightAware
02:14AM 31.4220 -13.9100 34° Northeast 561 646 38,000  Level FlightAware
02:14AM 31.4960 -13.8520 34° Northeast 561 646 38,000  Level FlightAware
02:15AM 31.6180 -13.7540 34° Northeast 560 644 38,000  Level FlightAware
02:16AM 31.6910 -13.6960 34° Northeast 560 644 38,000  Level FlightAware
02:16AM 31.7640 -13.6380 34° Northeast 560 644 38,000  Level FlightAware
02:17AM 31.8370 -13.5800 34° Northeast 560 644 38,000  Level FlightAware
02:18AM 31.9890 -13.4520 36° Northeast 562 647 38,000  Level FlightAware
02:19AM 32.0940 -13.3680 34° Northeast 562 647 38,000  Level FlightAware
02:19AM 32.1670 -13.3100 34° Northeast 562 647 38,000  Level FlightAware
02:20AM 32.2400 -13.2510 34° Northeast 562 647 38,000  Level FlightAware
02:21AM 32.3140 -13.1930 34° Northeast 562 647 38,000  Level FlightAware
02:22AM 32.4050 -13.1200 34° Northeast 562 647 38,000  Level FlightAware
02:22AM 32.4780 -13.0610 34° Northeast 562 647 38,000  Level FlightAware
02:23AM 32.6620 -12.8990 37° Northeast 562 647 38,000  Level FlightAware
02:24AM 32.7440 -12.8320 34° Northeast 563 648 38,000  Level FlightAware
02:25AM 32.8520 -12.7410 35° Northeast 564 649 38,000  Level FlightAware
02:26AM 32.9610 -12.6510 35° Northeast 564 649 38,000  Level FlightAware
02:26AM 33.0450 -12.5810 35° Northeast 564 649 38,000  Level FlightAware
02:27AM 33.1340 -12.5060 35° Northeast 564 649 38,000  Level FlightAware
02:28AM 33.2060 -12.4450 35° Northeast 564 649 38,000  Level FlightAware
02:28AM 33.2790 -12.3850 34° Northeast 564 649 38,000  Level FlightAware
02:29AM 33.3520 -12.3240 35° Northeast 564 649 38,000  Level FlightAware
02:30AM 33.4240 -12.2630 35° Northeast 564 649 38,000  Level FlightAware
02:30AM 33.5150 -12.1870 35° Northeast 564 649 38,000  Level FlightAware
02:31AM 33.5880 -12.1250 35° Northeast 564 649 38,000  Level FlightAware
02:32AM 33.6610 -12.0640 35° Northeast 564 649 38,000  Level FlightAware
02:32AM 33.7330 -12.0030 35° Northeast 564 649 38,000  Level FlightAware
02:33AM 33.8240 -11.9270 35° Northeast 564 649 38,000  Level FlightAware
02:34AM 33.8970 -11.8650 35° Northeast 564 649 38,000  Level FlightAware
02:35AM 33.9690 -11.8040 35° Northeast 564 649 38,000  Level FlightAware
02:35AM 34.0420 -11.7430 35° Northeast 564 649 38,000  Level FlightAware
02:36AM 34.1150 -11.6810 35° Northeast 564 649 38,000  Level FlightAware
02:39AM 34.4037 -11.4707 31° Northeast  Level Estimated
02:40AM 34.5168 -11.3878 31° Northeast  Level Estimated
02:41AM 34.6299 -11.3047 31° Northeast  Level Estimated
02:42AM 34.7429 -11.2213 31° Northeast  Level Estimated
02:42AM 35.0960 -10.8090 31° Northeast 557 641 38,000  Level FlightAware
02:43AM 35.1810 -10.7340 36° Northeast 557 641 38,000  Level FlightAware
02:44AM 35.2930 -10.6330 36° Northeast 563 648 38,000  Level FlightAware
02:45AM 35.3650 -10.5690 36° Northeast 563 648 38,000  Level FlightAware
02:45AM 35.4570 -10.4860 36° Northeast 562 647 38,000  Level FlightAware
02:46AM 35.5690 -10.3850 36° Northeast 562 647 38,000  Level FlightAware
02:47AM 35.6530 -10.3090 36° Northeast 562 647 38,000  Level FlightAware
02:47AM 35.7370 -10.2330 36° Northeast 562 647 38,000  Level FlightAware
02:48AM 35.8300 -10.1480 37° Northeast 562 647 38,000  Level FlightAware
02:49AM 35.9030 -10.0820 36° Northeast 562 647 38,000  Level FlightAware
02:50AM 36.0010 -9.9980 35° Northeast 553 636 38,000  Level FlightAware
02:50AM 36.0980 -9.9230 32° Northeast 553 636 38,000  Level FlightAware
02:51AM 36.2070 -9.8380 32° Northeast 553 636 38,000  Level FlightAware
02:52AM 36.2990 -9.7670 32° Northeast 554 638 38,000  Level FlightAware
02:53AM 36.3900 -9.6970 32° Northeast 554 638 38,000  Level FlightAware
02:53AM 36.4930 -9.6160 32° Northeast 553 636 38,000  Level FlightAware
02:54AM 36.6200 -9.5170 32° Northeast 554 638 38,000  Level FlightAware
02:55AM 36.7140 -9.4440 32° Northeast 554 638 38,000  Level FlightAware
02:56AM 36.8020 -9.3750 32° Northeast 555 639 38,000  Level FlightAware
02:56AM 36.9000 -9.2980 32° Northeast 555 639 38,000  Level FlightAware
02:57AM 36.9890 -9.2270 32° Northeast 555 639 38,000  Level FlightAware
02:58AM 37.0750 -9.1590 32° Northeast 554 638 38,000  Level FlightAware
02:58AM 37.1750 -9.0800 32° Northeast 553 636 38,000  Level FlightAware
02:59AM 37.2620 -9.0110 32° Northeast 552 635 38,000  Level FlightAware
03:00AM 37.3440 -8.9430 33° Northeast 552 635 38,000  Level FlightAware
03:00AM 37.4230 -8.8810 32° Northeast 552 635 38,000  Level FlightAware
03:01AM 37.5340 -8.7920 32° Northeast 558 642 38,000  Level FlightAware
03:02AM 37.6120 -8.7290 33° Northeast 557 641 38,000  Level FlightAware
03:03AM 37.7030 -8.6560 32° Northeast 557 641 38,000  Level FlightAware
03:04AM 37.8300 -8.5530 33° Northeast 556 640 38,000  Level FlightAware
03:04AM 37.9340 -8.4680 33° Northeast 557 641 38,000  Level FlightAware
03:05AM 38.0200 -8.3980 33° Northeast 557 641 38,000  Level FlightAware
03:06AM 38.1190 -8.3170 33° Northeast 557 641 38,000  Level FlightAware
03:06AM 38.2010 -8.2490 33° Northeast 558 642 38,000  Level FlightAware
03:07AM 38.3250 -8.1480 33° Northeast 558 642 38,000  Level FlightAware
03:08AM 38.4140 -8.0730 33° Northeast 558 642 38,000  Level FlightAware
03:09AM 38.5060 -7.9970 33° Northeast 557 641 38,000  Level FlightAware
03:09AM 38.5900 -7.9270 33° Northeast 558 642 38,000  Level FlightAware
03:10AM 38.6930 -7.8410 33° Northeast 558 642 38,000  Level FlightAware
03:11AM 38.7820 -7.7670 33° Northeast 556 640 38,000  Level FlightAware
03:11AM 38.8590 -7.7020 33° Northeast 555 639 38,000  Level FlightAware
03:12AM 38.9620 -7.6150 33° Northeast 555 639 38,000  Level FlightAware
03:13AM 39.0500 -7.5410 33° Northeast 555 639 38,000  Level FlightAware
03:14AM 39.1430 -7.4630 33° Northeast 552 635 38,000  Level FlightAware
03:15AM 39.2590 -7.3630 34° Northeast 553 636 38,000  Level FlightAware
03:15AM 39.3480 -7.2880 33° Northeast 553 636 38,000  Level FlightAware
03:16AM 39.4470 -7.2100 31° Northeast 551 634 38,000  Level FlightAware
03:17AM 39.5340 -7.1430 31° Northeast 552 635 38,000  Level FlightAware
03:17AM 39.6320 -7.0660 31° Northeast 554 638 38,000  Level FlightAware
03:18AM 39.7180 -6.9990 31° Northeast 554 638 38,000  Level FlightAware
03:19AM 39.8070 -6.9280 31° Northeast 553 636 38,000  Level FlightAware
03:19AM 39.9040 -6.8510 31° Northeast 553 636 38,000  Level FlightAware
03:20AM 39.9910 -6.7810 32° Northeast 552 635 38,000  Level FlightAware
03:21AM 40.0900 -6.7020 31° Northeast 551 634 38,000  Level FlightAware
03:22AM 40.1750 -6.6330 32° Northeast 550 633 38,000  Level FlightAware
03:22AM 40.2620 -6.5630 32° Northeast 549 632 38,000  Level FlightAware
03:23AM 40.3560 -6.4870 32° Northeast 548 631 38,000  Level FlightAware
03:24AM 40.4550 -6.4070 32° Northeast 548 631 38,000  Level FlightAware
03:24AM 40.5420 -6.3370 31° Northeast 547 629 38,000  Level FlightAware
03:25AM 40.6280 -6.2730 29° Northeast 542 624 38,000  Level FlightAware
03:26AM 40.7170 -6.2100 28° Northeast 540 621 38,000  Level FlightAware
03:26AM 40.8160 -6.1420 27° Northeast 540 621 38,000  Level FlightAware
03:27AM 40.9030 -6.0810 28° Northeast 539 620 38,000  Level FlightAware
03:28AM 41.0030 -6.0120 28° Northeast 539 620 38,000  Level FlightAware
03:29AM 41.0860 -5.9530 28° Northeast 541 623 38,000  Level FlightAware
03:29AM 41.1900 -5.8810 28° Northeast 541 623 38,000  Level FlightAware
03:30AM 41.2780 -5.8190 28° Northeast 539 620 38,000  Level FlightAware
03:31AM 41.3660 -5.7560 28° Northeast 535 616 38,000  Level FlightAware
03:31AM 41.4640 -5.6870 28° Northeast 534 615 38,000  Level FlightAware
03:32AM 41.5500 -5.6300 26° Northeast 529 609 38,000  Level FlightAware
03:33AM 41.6510 -5.5710 24° Northeast 525 604 38,000  Level FlightAware
03:33AM 41.7400 -5.5220 22° Northeast 519 597 38,000  Level FlightAware
03:34AM 41.8270 -5.4720 23° Northeast 514 592 38,000  Level FlightAware
03:35AM 41.9260 -5.4150 23° Northeast 511 588 38,000  Level FlightAware
03:36AM 42.0130 -5.3660 23° Northeast 511 588 38,000  Level FlightAware
03:36AM 42.1100 -5.3110 23° Northeast 510 587 38,000  Level FlightAware
03:37AM 42.1970 -5.2610 23° Northeast 510 587 38,000  Level FlightAware
03:38AM 42.2940 -5.2050 23° Northeast 509 586 38,000  Level FlightAware
03:38AM 42.3800 -5.1550 23° Northeast 509 586 38,000  Level FlightAware
03:39AM 42.4630 -5.1070 23° Northeast 508 585 38,000  Level FlightAware
03:40AM 42.5620 -5.0490 23° Northeast 506 582 38,000  Level FlightAware
03:40AM 42.6490 -4.9990 23° Northeast 506 582 38,000  Level FlightAware
03:41AM 42.7770 -4.9240 23° Northeast 505 581 38,000  Level FlightAware
03:42AM 42.8670 -4.8710 23° Northeast 505 581 38,000  Level FlightAware
03:43AM 42.9470 -4.8240 23° Northeast 506 582 38,000  Level FlightAware
03:44AM 43.0480 -4.7640 23° Northeast 506 582 38,000  Level FlightAware
03:44AM 43.1340 -4.7130 23° Northeast 507 583 38,000  Level FlightAware
03:45AM 43.2220 -4.6610 23° Northeast 508 585 38,000  Level FlightAware
03:45AM 43.2920 -4.6190 24° Northeast 507 583 38,000  Level FlightAware
03:46AM 43.3840 -4.5640 23° Northeast 504 580 38,000  Level FlightAware
03:47AM 43.4990 -4.4950 24° Northeast 501 577 38,000  Level FlightAware
03:48AM 43.5800 -4.4460 24° Northeast 501 577 38,000  Level FlightAware
03:48AM 43.6640 -4.3950 24° Northeast 501 577 38,000  Level FlightAware
03:49AM 43.7610 -4.3370 23° Northeast 501 577 38,000  Level FlightAware
03:50AM 43.8330 -4.2920 24° Northeast 501 577 38,000  Level FlightAware
03:50AM 43.9050 -4.2480 24° Northeast 501 577 38,000  Level FlightAware
03:51AM 43.9770 -4.2030 24° Northeast 501 577 38,000  Level FlightAware
03:52AM 44.0490 -4.1590 24° Northeast 501 577 38,000  Level FlightAware
03:53AM 44.2050 -4.0640 24° Northeast 496 571 38,000  Level FlightAware
03:53AM 44.2920 -4.0110 24° Northeast 496 571 38,000  Level FlightAware
03:54AM 44.3650 -3.9650 24° Northeast 496 571 38,000  Level FlightAware
03:55AM 44.3470 -3.9760 204° Southwest 496 571 38,000  Level FlightAware
03:56AM 44.6040 -3.8040 25° Northeast 496 571 38,000  Level FlightAware
03:57AM 44.7140 -3.7300 26° Northeast 494 568 38,000  Level FlightAware
03:59AM 44.8823 -3.5104 43° Northeast  Level Estimated
03:59AM 45.0250 -3.5180 43° Northeast 486 559 38,000  Level FlightAware
04:01AM 45.2470 -3.3670 26° Northeast 493 567 38,000  Level FlightAware
04:02AM 45.3340 -3.3090 25° Northeast 493 567 38,000  Level FlightAware
04:03AM 45.4050 -3.2620 25° Northeast 493 567 38,000  Level FlightAware
04:04AM 45.5710 -3.1410 27° Northeast 492 566 38,000  Level FlightAware
04:04AM 45.6620 -3.0780 26° Northeast 492 566 38,000  Level FlightAware
04:05AM 45.7540 -3.0130 26° Northeast 491 565 38,000  Level FlightAware
04:06AM 45.8300 -2.9590 26° Northeast 490 564 38,000  Level FlightAware
04:08AM 45.9772 -2.7275 48° Northeast  Level Estimated
04:08AM 46.1170 -2.7360 48° Northeast 484 557 38,000  Level FlightAware
04:09AM 46.2170 -2.7060 12° North 474 545 38,000  Level FlightAware
04:10AM 46.3020 -2.6850 10° North 474 545 38,000  Level FlightAware
04:10AM 46.3710 -2.6680 10° North 474 545 38,000  Level FlightAware
04:11AM 46.4850 -2.6400 10° North 475 547 38,000  Level FlightAware
04:12AM 46.5690 -2.6190 10° North 476 548 38,000  Level FlightAware
04:12AM 46.6670 -2.5800 15° North 489 563 38,000  Level FlightAware
04:13AM 46.7400 -2.4960 38° Northeast 502 578 38,000  Level FlightAware
04:14AM 46.7860 -2.4030 54° Northeast 503 579 38,000  Level FlightAware
04:15AM 46.8540 -2.2640 54° Northeast 501 577 38,000  Level FlightAware
04:15AM 46.9060 -2.1560 55° Northeast 499 574 38,000  Level FlightAware
04:16AM 46.9600 -2.0430 55° Northeast 499 574 38,000 -480 Level FlightAware
04:17AM 47.0230 -1.9170 54° Northeast 498 573 37,400 -900 Descending FlightAware
04:17AM 47.0750 -1.8100 54° Northeast 493 567 36,800 -1,020 Descending FlightAware
04:18AM 47.1340 -1.6910 54° Northeast 493 567 36,000 -600 Descending FlightAware
04:19AM 47.1860 -1.5840 54° Northeast 490 564 36,000  Level FlightAware
04:19AM 47.2470 -1.4580 54° Northeast 491 565 36,000 -360 Level FlightAware
04:20AM 47.3000 -1.3470 55° Northeast 493 567 35,500 -840 Descending FlightAware
04:21AM 47.3530 -1.2380 54° Northeast 490 564 34,900 -960 Descending FlightAware
04:22AM 47.4100 -1.1190 55° Northeast 485 558 34,200 -1,440 Descending FlightAware
04:22AM 47.4610 -1.0120 55° Northeast 483 556 32,900 -1,740 Descending FlightAware
04:23AM 47.5040 -0.9030 60° Northeast 472 543 31,900 -1,860 Descending FlightAware
04:24AM 47.5410 -0.7640 68° East 462 532 30,300 -1,380 Descending FlightAware
04:24AM 47.5720 -0.6480 68° East 459 528 30,000 -240 Descending FlightAware
04:25AM 47.6050 -0.5170 69° East 463 533 30,000  Level FlightAware
04:26AM 47.6360 -0.4000 68° East 464 534 30,000 -240 Level FlightAware
04:26AM 47.6710 -0.2620 69° East 460 529 29,700 -1,140 Descending FlightAware
04:27AM 47.7000 -0.1460 70° East 451 519 28,400 -1,800 Descending FlightAware
04:28AM 47.7340 -0.0330 66° East 441 507 27,300 -1,800 Descending FlightAware
04:28AM 47.7820 0.0620 53° Northeast 433 498 26,000 -1,860 Descending FlightAware
04:29AM 47.8390 0.1580 48° Northeast 423 487 24,700 -1,800 Descending FlightAware
04:30AM 47.8880 0.2420 49° Northeast 416 479 23,500 -1,680 Descending FlightAware
04:31AM 47.9470 0.3420 49° Northeast 397 457 22,400 -1,560 Descending FlightAware
04:31AM 47.9950 0.4240 49° Northeast 390 449 21,300 -1,740 Descending FlightAware
04:32AM 48.0450 0.5110 49° Northeast 384 442 20,000 -1,860 Descending FlightAware
04:32AM 48.0618 0.5392 48° Northeast 384 442 19,600 -1,740 Descending FlightAware ADS-B
04:33AM 48.0980 0.6014 49° Northeast 379 436 18,800 -1,560 Descending FlightAware ADS-B
04:33AM 48.1324 0.6609 49° Northeast 374 430 18,000 -1,740 Descending FlightAware ADS-B
04:34AM 48.1735 0.7320 49° Northeast 368 423 16,900 -1,620 Descending FlightAware ADS-B
04:34AM 48.2130 0.8005 49° Northeast 362 417 16,100 -1,140 Descending FlightAware ADS-B
04:35AM 48.2460 0.8580 49° Northeast 359 413 15,700 -1,080 Descending FlightAware ADS-B
04:35AM 48.2802 0.9175 49° Northeast 354 407 15,000 -720 Descending FlightAware ADS-B
04:36AM 48.3123 0.9738 49° Northeast 353 406 15,000  Level FlightAware ADS-B
04:37AM 48.3470 1.0345 49° Northeast 357 411 15,000  Level FlightAware ADS-B
04:37AM 48.3798 1.0919 49° Northeast 358 412 15,000  Level FlightAware ADS-B
04:38AM 48.4125 1.1494 49° Northeast 359 413 15,000 -600 Level FlightAware ADS-B
04:38AM 48.4453 1.2072 49° Northeast 357 411 14,400 -1,020 Descending FlightAware ADS-B
04:39AM 48.4777 1.2647 50° Northeast 353 406 14,000 -480 Descending FlightAware ADS-B
04:39AM 48.4989 1.3022 50° Northeast 355 409 14,000  Level FlightAware ADS-B
04:39AM 48.5070 1.3184 53° Northeast 357 411 14,000  Level FlightAware ADS-B
04:39AM 48.5184 1.3447 57° Northeast 357 411 14,000  Level FlightAware ADS-B
04:40AM 48.5425 1.4114 61° Northeast 360 414 14,000  Level FlightAware ADS-B
04:40AM 48.5654 1.4785 63° Northeast 360 414 14,000  Level FlightAware ADS-B
04:40AM 48.5759 1.5023 56° Northeast 357 411 14,000  Level FlightAware ADS-B
04:41AM 48.5875 1.5237 51° Northeast 356 410 14,000  Level FlightAware ADS-B
04:41AM 48.6051 1.5516 46° Northeast 354 407 14,000  Level FlightAware ADS-B
04:41AM 48.6416 1.6044 44° Northeast 353 406 14,000  Level FlightAware ADS-B
04:42AM 48.6790 1.6576 43° Northeast 354 407 14,000  Level FlightAware ADS-B
04:43AM 48.7235 1.7222 44° Northeast 351 404 14,000  Level FlightAware ADS-B
04:43AM 48.7587 1.7737 44° Northeast 349 402 14,000  Level FlightAware ADS-B
04:44AM 48.7941 1.8252 44° Northeast 349 402 14,000  Level FlightAware ADS-B
04:44AM 48.8308 1.8796 44° Northeast 351 404 14,000 -1,680 Level FlightAware ADS-B
04:44AM 48.8570 1.9192 44° Northeast 1 1 12,500  Descending FlightAware UK
04:45AM 48.8648 1.9296 44° Northeast 354 407 14,000 5,280 Climbing FlightAware ADS-B
04:45AM 48.8746 1.9475 50° Northeast 356 410 14,000  Level FlightAware ADS-B
04:45AM 48.8823 1.9677 60° Northeast 357 411 14,000  Level FlightAware ADS-B
04:45AM 48.8881 1.9905 69° East 358 412 14,000  Level FlightAware ADS-B
04:45AM 48.8905 2.0063 77° East 357 411 14,000 -180 Level FlightAware ADS-B
04:46AM 48.8955 2.0832 84° East 351 404 13,900 -540 Descending FlightAware ADS-B
04:46AM 48.8992 2.1557 86° East 337 388 13,500 -900 Descending FlightAware ADS-B
04:47AM 48.9028 2.2253 85° East 329 379 13,000 -480 Descending FlightAware ADS-B
04:47AM 48.9076 2.3089 85° East 331 381 13,000 -540 Level FlightAware ADS-B
04:48AM 48.9115 2.3784 85° East 325 374 12,400 -1,680 Descending FlightAware ADS-B
04:48AM 48.9150 2.4408 85° East 320 368 11,400 -2,220 Descending FlightAware ADS-B
04:49AM 48.9173 2.5446 88° East 316 364 9,700 -2,280 Descending FlightAware ADS-B
04:49AM 48.9177 2.5786 89° East 317 365 9,100 -2,220 Descending FlightAware ADS-B
04:50AM 48.9182 2.6183 89° East 312 359 8,500 -1,800 Descending FlightAware ADS-B
04:50AM 48.9185 2.6513 89° East 305 351 8,100 -1,560 Descending FlightAware ADS-B
04:50AM 48.9188 2.6841 89° East 302 348 7,700 -1,620 Descending FlightAware ADS-B
04:50AM 48.9190 2.7159 89° East 301 346 7,300 -1,560 Descending FlightAware ADS-B
04:51AM 48.9192 2.7655 90° East 298 343 6,700 -1,620 Descending FlightAware ADS-B
04:51AM 48.9194 2.8010 89° East 296 341 6,200 -1,740 Descending FlightAware ADS-B
04:51AM 48.9196 2.8325 89° East 294 338 5,800 -1,560 Descending FlightAware ADS-B
04:52AM 48.9197 2.8653 90° East 292 336 5,400 -1,200 Descending FlightAware ADS-B
04:52AM 48.9199 2.8960 89° East 288 331 5,200 -960 Descending FlightAware ADS-B
04:52AM 48.9202 2.9170 89° East 286 329 5,000 -1,200 Descending FlightAware ADS-B
04:52AM 48.9208 2.9259 84° East 284 327 4,900 -780 Descending FlightAware ADS-B
04:52AM 48.9219 2.9334 77° East 280 322 4,900 -780 Level FlightAware ADS-B
04:52AM 48.9234 2.9400 71° East 277 319 4,800 -600 Descending FlightAware ADS-B
04:52AM 48.9271 2.9526 66° East 271 312 4,800 -600 Level FlightAware ADS-B
04:53AM 48.9360 2.9781 62° Northeast 264 304 4,600 -780 Descending FlightAware ADS-B
04:53AM 48.9451 3.0039 62° Northeast 258 297 4,400 -600 Descending FlightAware ADS-B
04:53AM 48.9537 3.0288 62° Northeast 249 287 4,300 -600 Descending FlightAware ADS-B
04:53AM 48.9617 3.0523 63° Northeast 244 281 4,100 -900 Descending FlightAware ADS-B
04:53AM 48.9652 3.0608 58° Northeast 241 277 4,000 -720 Descending FlightAware ADS-B
04:53AM 48.9674 3.0648 50° Northeast 240 276 4,000 -780 Level FlightAware ADS-B
04:54AM 48.9715 3.0703 42° Northeast 236 272 3,900 -600 Descending FlightAware ADS-B
04:54AM 48.9760 3.0746 32° Northeast 236 272 3,900  Level FlightAware ADS-B
04:54AM 48.9825 3.0781 20° North 235 270 3,900  Level FlightAware ADS-B
04:54AM 48.9860 3.0791 10° North 233 268 3,900  Level FlightAware ADS-B
04:54AM 48.9899 3.0793 North 230 265 3,900  Level FlightAware ADS-B
04:54AM 48.9959 3.0781 352° North 228 262 3,900  Level FlightAware ADS-B
04:54AM 48.9998 3.0762 342° North 225 259 3,900  Level FlightAware ADS-B
04:54AM 49.0029 3.0739 335° Northwest 225 259 3,900  Level FlightAware ADS-B
04:54AM 49.0083 3.0678 323° Northwest 221 254 3,900  Level FlightAware ADS-B
04:54AM 49.0103 3.0644 312° West 218 251 3,900  Level FlightAware ADS-B
04:54AM 49.0126 3.0596 306° West 217 250 3,900  Level FlightAware ADS-B
04:54AM 49.0146 3.0535 297° West 215 247 3,900  Level FlightAware ADS-B
04:54AM 49.0157 3.0482 288° West 214 246 3,900  Level FlightAware ADS-B
04:55AM 49.0166 3.0369 277° West 214 246 3,900  Level FlightAware ADS-B
04:55AM 49.0165 3.0278 269° West 214 246 3,900  Level FlightAware ADS-B
04:55AM 49.0153 3.0040 266° West 214 246 3,900  Level FlightAware ADS-B
04:55AM 49.0142 2.9808 266° West 212 244 3,900  Level FlightAware ADS-B
04:55AM 49.0132 2.9580 266° West 213 245 3,900  Level FlightAware ADS-B
04:56AM 49.0119 2.9328 266° West 214 246 3,900  Level FlightAware ADS-B
04:56AM 49.0107 2.9091 266° West 213 245 3,900  Level FlightAware ADS-B
04:56AM 49.0096 2.8853 266° West 206 237 3,900 -480 Level FlightAware ADS-B
04:56AM 49.0087 2.8679 266° West 201 231 3,700 -1,020 Descending FlightAware ADS-B
04:57AM 49.0079 2.8520 266° West 188 216 3,500 -900 Descending FlightAware ADS-B
04:57AM 49.0069 2.8327 265° West 175 201 3,300 -1,020 Descending FlightAware ADS-B
04:57AM 49.0059 2.8145 265° West 172 198 3,000 -960 Descending FlightAware ADS-B
04:57AM 49.0053 2.8022 266° West 171 197 2,900 -900 Descending FlightAware ADS-B
04:58AM 49.0043 2.7828 266° West 171 197 2,600 -1,200 Descending FlightAware ADS-B
04:58AM 49.0037 2.7715 265° West 169 194 2,400 -780 Descending FlightAware ADS-B
04:58AM 49.0029 2.7538 266° West 163 188 2,300 -780 Descending FlightAware ADS-B
04:58AM 49.0019 2.7371 265° West 150 173 2,000 -960 Descending FlightAware ADS-B
04:59AM 49.0011 2.7210 266° West 141 162 1,800 -780 Descending FlightAware ADS-B
04:59AM 49.0003 2.7053 266° West 134 154 1,600 -840 Descending FlightAware ADS-B
04:59AM 48.9992 2.6849 265° West 128 147 1,300 -660 Descending FlightAware ADS-B
04:59AM 48.9985 2.6712 266° West 129 148 1,200 -600 Descending FlightAware ADS-B
05:00AM 48.9982 2.6656 265° West 129 148 1,100 -1,020 Descending FlightAware ADS-B
05:00AM 48.9975 2.6547 264° West 124 143 900 -900 Descending FlightAware ADS-B
05:00AM 48.9971 2.6474 265° West 125 144 800 -600 Descending FlightAware ADS-B
05:00AM 48.9967 2.6374 267° West 126 145 700 -600 Descending FlightAware ADS-B
05:00AM 48.9963 2.6287 266° West 128 147 600 -660 Descending FlightAware ADS-B
05:00AM 48.9958 2.6210 264° West 130 150 500 -900 Descending FlightAware ADS-B
05:00AM 48.9955 2.6161 265° West 128 147 400 -720 Descending FlightAware ADS-B
05:01AM 48.9950 2.6053 266° West 128 147 300 -540 Descending FlightAware ADS-B
05:09AM 47.6061 -1.6985 62° Northeast  Level Estimated
05:10AM 47.6679 -1.5259 62° Northeast  Level Estimated
05:11AM 47.7294 -1.3528 62° Northeast  Level Estimated
05:12AM 47.7907 -1.1793 62° Northeast  Level Estimated
05:13AM 47.8517 -1.0054 62° Northeast  Level Estimated
05:14AM 47.9125 -0.8311 62° Northeast  Level Estimated
05:15AM 47.9729 -0.6564 63° Northeast  Level Estimated
05:16AM 48.0332 -0.4813 63° Northeast  Level Estimated
05:17AM 48.0931 -0.3058 63° Northeast  Level Estimated
05:18AM 48.1528 -0.1299 63° Northeast  Level Estimated